< Typhoon 198524 1985 Season Typhoon 198526 >
Typhoon 198525 (GORDON)
General InformationTrack Information on Google MapsDetailed Wind InformationList of All Images || Disaster Info.ResourceGoogle EarthGE AnimationAtom FeedGeoJSON
Detalied Best Track (Time Zone = UTC)
Year Month Day Hour Lat. Long. Pressure (hPa) Wind (kt) Class Image Chart
1985 11 20 06 7.0 110.0 1006 0 2 Image Chart
1985 11 20 12 7.4 111.4 1004 0 2 Image Chart
1985 11 20 18 7.7 111.7 1002 0 2 Image Chart
1985 11 21 00 8.0 112.0 1000 40 3 Image Chart
1985 11 21 06 8.4 112.2 1000 40 3 Image Chart
1985 11 21 12 8.7 112.3 1000 40 3 Image Chart
1985 11 21 18 9.0 112.5 1000 40 3 Image Chart
1985 11 22 00 9.0 112.5 1000 40 3 Image Chart
1985 11 22 06 9.3 112.5 1000 40 3 Image Chart
1985 11 22 12 9.3 112.5 1000 40 3 Image Chart
1985 11 22 18 9.3 112.5 1000 40 3 Image Chart
1985 11 23 00 9.4 112.4 1000 35 3 Image Chart
1985 11 23 06 9.7 112.4 1000 35 3 Image Chart
1985 11 23 12 10.0 112.4 1000 35 3 Image Chart
1985 11 23 18 10.3 112.4 1000 35 3 Image Chart
1985 11 24 00 10.7 112.4 1000 40 3 Image Chart
1985 11 24 06 11.2 112.2 1000 40 3 Image Chart
1985 11 24 12 11.6 112.0 998 40 3 Image Chart
1985 11 24 18 11.8 111.5 1000 40 3 Image Chart
1985 11 25 00 12.1 111.0 1000 40 3 Image Chart
1985 11 25 06 12.3 110.0 1000 40 3 Image Chart
1985 11 25 12 12.5 108.8 1004 0 2 Image Chart
1985 11 25 18 12.7 107.7 1006 0 2 Image Chart
1985 11 26 00 12.8 106.5 1008 0 2 Image Chart
Japan Meteorological Agency Best Track Data | Correction Date : 1992-10-21
< Typhoon 198524 1985 Season Typhoon 198526 >

Help